Time;durP1;ratioP1;P1;durP2;ratioP2;P2;SDS_P1;SDS_P2;PMS_P1;PMS_P2;Temp;Humidity;BMP_temperature;BMP_pressure;BME280_temperature;BME280_humidity;BME280_pressure;Samples;Min_cycle;Max_cycle;Signal;HPM_P1;HPM_P2
2022/06/22 00:02:06;;;;;;;19.67;9.93;;;20.00;62.90;;;;;;5049556;28;20208;-92
2022/06/22 00:04:38;;;;;;;15.13;10.40;;;20.00;62.90;;;;;;5053822;28;20238;-91
2022/06/22 00:07:13;;;;;;;18.30;10.80;;;20.00;63.00;;;;;;5054987;28;20273;-93
2022/06/22 00:09:42;;;;;;;15.00;9.80;;;19.90;62.90;;;;;;5054280;28;20198;-93
2022/06/22 00:12:22;;;;;;;15.07;10.63;;;20.00;62.90;;;;;;5046136;28;20210;-93
2022/06/22 00:14:53;;;;;;;15.43;10.03;;;19.90;63.60;;;;;;5053993;28;20206;-92
2022/06/22 00:17:24;;;;;;;16.43;10.83;;;19.90;63.30;;;;;;5054045;28;20500;-93
2022/06/22 00:19:58;;;;;;;14.33;10.37;;;19.80;63.30;;;;;;5055226;28;20202;-91
2022/06/22 00:22:29;;;;;;;18.33;12.30;;;19.80;63.40;;;;;;5053508;28;20200;-92
2022/06/22 00:25:13;;;;;;;20.63;12.50;;;19.80;64.00;;;;;;5052320;28;20226;-93
2022/06/22 00:27:40;;;;;;;23.33;13.07;;;19.80;64.70;;;;;;5073044;28;20210;-92
2022/06/22 00:30:20;;;;;;;18.07;11.37;;;19.70;63.80;;;;;;5066411;28;20210;-93
2022/06/22 00:33:00;;;;;;;21.70;13.03;;;19.70;64.90;;;;;;5052100;28;20806;-94
2022/06/22 00:35:50;;;;;;;21.83;12.77;;;19.70;65.10;;;;;;5051876;28;20199;-92
2022/06/22 00:38:22;;;;;;;17.27;11.13;;;19.70;65.40;;;;;;5053504;28;20251;-92
2022/06/22 00:40:54;;;;;;;21.03;12.50;;;19.70;64.50;;;;;;5054561;28;20639;-93
2022/06/22 00:43:22;;;;;;;18.87;12.33;;;19.60;64.20;;;;;;5045517;28;20221;-92
2022/06/22 00:45:52;;;;;;;25.03;12.90;;;19.60;63.60;;;;;;5057923;28;20226;-91
2022/06/22 00:48:27;;;;;;;19.27;11.57;;;19.60;64.40;;;;;;5051933;28;20203;-92
2022/06/22 00:50:59;;;;;;;20.07;12.93;;;19.60;64.80;;;;;;5052664;28;20593;-92
2022/06/22 00:53:50;;;;;;;23.37;12.80;;;19.60;64.60;;;;;;5050690;28;20203;-91
2022/06/22 00:56:25;;;;;;;20.30;12.63;;;19.60;65.30;;;;;;5035211;28;20211;-93
2022/06/22 00:59:02;;;;;;;23.80;12.53;;;19.60;64.90;;;;;;5047188;28;20717;-93
2022/06/22 01:01:38;;;;;;;23.10;13.47;;;19.50;65.20;;;;;;5056194;28;20209;-93
2022/06/22 01:04:12;;;;;;;21.17;13.47;;;19.50;65.20;;;;;;5051356;28;20227;-92
2022/06/22 01:06:46;;;;;;;20.37;13.07;;;19.50;65.20;;;;;;5050964;28;20199;-92
2022/06/22 01:09:32;;;;;;;17.83;11.47;;;19.40;65.10;;;;;;5053296;28;20299;-93
2022/06/22 01:12:22;;;;;;;20.63;12.87;;;19.40;65.80;;;;;;5057011;28;20564;-92
2022/06/22 01:15:19;;;;;;;18.20;12.93;;;19.40;65.60;;;;;;5047873;28;20226;-93
2022/06/22 01:17:55;;;;;;;22.87;14.17;;;19.40;66.50;;;;;;5058711;28;20211;-93
2022/06/22 01:20:31;;;;;;;20.60;13.97;;;19.40;66.10;;;;;;5063113;28;20221;-93
2022/06/22 01:23:25;;;;;;;19.97;12.80;;;19.30;66.30;;;;;;5056233;28;20697;-92
2022/06/22 01:25:57;;;;;;;19.67;13.13;;;19.30;67.40;;;;;;5054628;28;20610;-91
2022/06/22 01:28:27;;;;;;;21.20;14.00;;;19.30;66.80;;;;;;5057499;28;20195;-93
2022/06/22 01:31:04;;;;;;;24.97;15.00;;;19.30;67.00;;;;;;5053819;28;20206;-92
2022/06/22 01:34:01;;;;;;;20.83;14.27;;;19.30;67.80;;;;;;5052688;28;20252;-91
2022/06/22 01:36:33;;;;;;;21.63;15.37;;;19.30;68.00;;;;;;5049800;28;20229;-91
2022/06/22 01:39:06;;;;;;;24.30;14.77;;;19.20;67.10;;;;;;5057213;28;20203;-92
2022/06/22 01:41:40;;;;;;;23.73;14.33;;;19.20;67.40;;;;;;5050242;28;20217;-92
2022/06/22 01:44:14;;;;;;;22.03;14.53;;;19.20;67.80;;;;;;5049596;28;20223;-92
2022/06/22 01:46:50;;;;;;;21.97;14.27;;;19.20;67.80;;;;;;5049356;28;20205;-92
2022/06/22 01:49:33;;;;;;;32.60;15.93;;;19.20;68.00;;;;;;5046402;28;20300;-92
2022/06/22 01:52:07;;;;;;;26.97;16.27;;;19.20;68.00;;;;;;5042950;28;20196;-92
2022/06/22 01:54:39;;;;;;;28.43;17.60;;;19.20;67.90;;;;;;5048945;28;20294;-92
2022/06/22 01:57:17;;;;;;;24.03;16.50;;;19.20;68.10;;;;;;5051080;28;20234;-92
2022/06/22 01:59:53;;;;;;;24.57;15.27;;;19.20;68.60;;;;;;5055849;28;20233;-92
2022/06/22 02:02:26;;;;;;;19.60;14.57;;;19.20;68.40;;;;;;5049726;28;20629;-92
2022/06/22 02:04:58;;;;;;;26.83;16.10;;;19.10;67.90;;;;;;5043760;28;21020;-92
2022/06/22 02:07:44;;;;;;;22.03;14.17;;;19.20;68.00;;;;;;5049452;28;20231;-92
2022/06/22 02:10:23;;;;;;;29.83;18.13;;;19.10;67.90;;;;;;5050068;28;20283;-91
2022/06/22 02:12:58;;;;;;;20.70;14.33;;;19.10;68.10;;;;;;5038395;28;20206;-92
2022/06/22 02:15:31;;;;;;;24.90;16.10;;;19.10;68.00;;;;;;5050204;28;20245;-91
2022/06/22 02:17:59;;;;;;;31.43;18.17;;;19.10;68.10;;;;;;5045734;28;20271;-92
2022/06/22 02:20:33;;;;;;;19.70;14.47;;;19.00;67.50;;;;;;5027857;28;20214;-91
2022/06/22 02:23:15;;;;;;;23.97;15.33;;;19.00;67.90;;;;;;5050380;28;20252;-91
2022/06/22 02:25:48;;;;;;;22.90;14.33;;;19.00;67.80;;;;;;5049503;28;20261;-92
2022/06/22 02:28:16;;;;;;;26.73;16.17;;;19.00;67.60;;;;;;5049163;28;20197;-92
2022/06/22 02:30:52;;;;;;;27.23;17.07;;;19.00;67.50;;;;;;5048351;28;20206;-91
2022/06/22 02:33:20;;;;;;;22.87;15.33;;;18.90;67.80;;;;;;5041001;28;20207;-91
2022/06/22 02:35:48;;;;;;;24.87;15.87;;;18.90;67.40;;;;;;5030335;28;20698;-92
2022/06/22 02:38:17;;;;;;;25.20;15.50;;;18.80;67.30;;;;;;5038761;28;20264;-91
2022/06/22 02:46:28;;;;;;;27.77;16.00;;;18.80;67.60;;;;;;5050480;28;20262;-91
2022/06/22 02:49:03;;;;;;;20.70;15.17;;;18.80;67.70;;;;;;5047856;28;20199;-91
2022/06/22 02:52:03;;;;;;;27.40;16.63;;;18.70;67.90;;;;;;5048773;28;20206;-90
2022/06/22 02:54:35;;;;;;;22.53;15.37;;;18.70;68.70;;;;;;5049338;28;20205;-91
2022/06/22 02:57:13;;;;;;;27.80;17.43;;;18.70;68.00;;;;;;5048660;28;20198;-91
2022/06/22 02:59:42;;;;;;;22.80;16.07;;;18.70;68.20;;;;;;5046785;28;20197;-91
2022/06/22 03:02:11;;;;;;;24.23;16.13;;;18.60;68.80;;;;;;5049547;28;20206;-92
2022/06/22 03:04:40;;;;;;;24.77;16.57;;;18.60;68.30;;;;;;5049190;28;20241;-90
2022/06/22 03:07:08;;;;;;;23.80;16.37;;;18.60;68.10;;;;;;5049270;28;20207;-91
2022/06/22 03:09:39;;;;;;;24.07;16.97;;;18.60;68.30;;;;;;5044102;28;20342;-91
2022/06/22 03:12:07;;;;;;;22.77;15.73;;;18.50;68.40;;;;;;5041079;28;20719;-91
2022/06/22 03:14:36;;;;;;;24.50;16.17;;;18.50;68.20;;;;;;5034598;28;20230;-90
2022/06/22 03:17:07;;;;;;;24.53;17.57;;;18.50;68.40;;;;;;5040891;28;20226;-90
2022/06/22 03:19:40;;;;;;;27.80;17.63;;;18.50;68.60;;;;;;5043154;28;20246;-92
2022/06/22 03:22:09;;;;;;;29.90;17.80;;;18.40;68.70;;;;;;5041881;28;20217;-90
2022/06/22 03:24:50;;;;;;;21.50;16.00;;;18.40;68.30;;;;;;5033590;28;20711;-91
2022/06/22 03:27:23;;;;;;;25.30;17.20;;;18.40;68.80;;;;;;5050838;28;20232;-90
2022/06/22 03:29:54;;;;;;;23.63;16.07;;;18.30;68.40;;;;;;5040645;28;20647;-91
2022/06/22 03:32:27;;;;;;;28.43;17.37;;;18.40;68.60;;;;;;5047460;28;20210;-92
2022/06/22 03:35:07;;;;;;;24.50;16.97;;;18.30;68.50;;;;;;5053780;28;20238;-91
2022/06/22 03:37:40;;;;;;;27.90;17.47;;;18.30;68.50;;;;;;5049459;28;20198;-90
2022/06/22 03:40:17;;;;;;;26.93;17.50;;;18.30;68.20;;;;;;5048114;28;20198;-91
2022/06/22 03:42:49;;;;;;;24.07;16.60;;;18.30;68.50;;;;;;5064209;28;20613;-91
2022/06/22 03:45:21;;;;;;;23.80;16.63;;;18.20;68.50;;;;;;5054665;28;20310;-91
2022/06/22 03:47:55;;;;;;;28.47;17.20;;;18.20;68.40;;;;;;5046136;28;20287;-90
2022/06/22 03:50:44;;;;;;;27.33;17.43;;;18.10;68.80;;;;;;5041887;28;20201;-91
2022/06/22 03:53:22;;;;;;;25.17;16.43;;;18.10;69.60;;;;;;5030910;28;20206;-90
2022/06/22 03:55:59;;;;;;;29.50;18.60;;;18.10;69.70;;;;;;5044291;28;20660;-90
2022/06/22 03:58:27;;;;;;;24.47;16.73;;;18.10;69.80;;;;;;5048265;28;20231;-90
2022/06/22 04:00:55;;;;;;;26.80;17.83;;;18.10;69.40;;;;;;5044361;28;20195;-91
2022/06/22 04:03:24;;;;;;;29.00;18.27;;;18.10;69.70;;;;;;5038686;28;20205;-90
2022/06/22 04:05:57;;;;;;;24.20;16.57;;;18.00;69.90;;;;;;5043585;28;20229;-91
2022/06/22 04:08:29;;;;;;;25.63;17.30;;;18.00;70.40;;;;;;5046009;28;20206;-91
2022/06/22 04:11:00;;;;;;;25.57;16.97;;;18.00;70.70;;;;;;5040873;28;20590;-91
2022/06/22 04:13:34;;;;;;;23.87;16.53;;;18.00;71.10;;;;;;5044607;28;20234;-91
2022/06/22 04:16:08;;;;;;;30.57;18.57;;;18.00;71.30;;;;;;5043502;28;20217;-91
2022/06/22 04:18:45;;;;;;;33.23;17.73;;;18.00;71.70;;;;;;5044704;28;20217;-91
2022/06/22 04:21:21;;;;;;;27.60;18.07;;;18.00;72.10;;;;;;5029338;28;20205;-90
2022/06/22 04:23:52;;;;;;;26.23;16.30;;;18.00;72.60;;;;;;5046881;28;20220;-90
2022/06/22 04:26:24;;;;;;;29.17;17.57;;;18.00;72.50;;;;;;5039675;28;20213;-89
2022/06/22 04:28:57;;;;;;;21.40;15.33;;;18.00;72.70;;;;;;5047854;28;20554;-89
2022/06/22 04:31:29;;;;;;;25.90;15.87;;;18.00;72.80;;;;;;5040799;28;20998;-90
2022/06/22 04:34:00;;;;;;;24.33;16.50;;;18.10;72.20;;;;;;5041932;28;21027;-90
2022/06/22 04:36:34;;;;;;;25.80;15.67;;;18.10;72.60;;;;;;5047664;28;20220;-91
2022/06/22 04:39:07;;;;;;;27.83;16.27;;;18.10;73.20;;;;;;5047380;28;20252;-91
2022/06/22 04:41:42;;;;;;;21.57;15.37;;;18.10;73.10;;;;;;5046104;28;20532;-91
2022/06/22 04:44:14;;;;;;;26.23;16.30;;;18.10;74.10;;;;;;5047472;28;20265;-91
2022/06/22 04:46:46;;;;;;;31.00;17.17;;;18.10;74.00;;;;;;5042270;28;20547;-91
2022/06/22 04:49:21;;;;;;;21.57;14.73;;;18.10;73.90;;;;;;5044385;28;20213;-91
2022/06/22 04:51:55;;;;;;;24.97;14.97;;;18.20;74.40;;;;;;5051910;28;20197;-90
2022/06/22 04:54:27;;;;;;;18.37;13.67;;;18.20;74.60;;;;;;5050338;28;20284;-90
2022/06/22 04:56:56;;;;;;;22.20;14.97;;;18.20;74.60;;;;;;5047486;28;20271;-90
2022/06/22 04:59:33;;;;;;;22.97;14.60;;;18.30;74.70;;;;;;5050039;28;20217;-90
2022/06/22 05:02:04;;;;;;;25.73;15.70;;;18.30;75.00;;;;;;5045430;28;20233;-92
2022/06/22 05:04:35;;;;;;;21.33;13.87;;;18.30;75.20;;;;;;5036562;28;20919;-90
2022/06/22 05:07:12;;;;;;;21.43;14.10;;;18.40;75.70;;;;;;5038578;28;20202;-90
2022/06/22 05:09:45;;;;;;;29.43;15.97;;;18.40;76.30;;;;;;5048783;28;20288;-90
2022/06/22 05:12:15;;;;;;;31.63;16.20;;;18.40;75.70;;;;;;5032559;28;20220;-90
2022/06/22 05:14:42;;;;;;;21.53;13.17;;;18.50;76.10;;;;;;5036224;28;20241;-90
2022/06/22 05:17:20;;;;;;;21.47;14.50;;;18.50;76.10;;;;;;5050511;28;20654;-90
2022/06/22 05:19:53;;;;;;;25.90;14.37;;;18.50;77.10;;;;;;5050681;28;20206;-92
2022/06/22 05:22:21;;;;;;;24.60;14.77;;;18.60;77.40;;;;;;5050372;28;20261;-92
2022/06/22 05:24:52;;;;;;;19.60;12.97;;;18.60;77.20;;;;;;5049768;28;20999;-90
2022/06/22 05:27:25;;;;;;;21.20;13.33;;;18.70;77.70;;;;;;5048277;28;20297;-91
2022/06/22 05:29:58;;;;;;;19.30;12.60;;;18.70;77.80;;;;;;5050171;28;20198;-91
2022/06/22 05:32:30;;;;;;;22.63;13.07;;;18.80;78.30;;;;;;5049791;28;20210;-91
2022/06/22 05:34:58;;;;;;;19.17;12.70;;;18.80;78.20;;;;;;5050767;28;20283;-91
2022/06/22 05:37:32;;;;;;;18.27;12.93;;;18.80;77.70;;;;;;5051368;28;20229;-92
2022/06/22 05:40:04;;;;;;;22.37;13.27;;;18.90;78.70;;;;;;5051502;28;20342;-92
2022/06/22 05:42:33;;;;;;;14.47;11.10;;;18.90;78.60;;;;;;5052038;28;20222;-94
2022/06/22 05:45:12;;;;;;;12.47;10.33;;;19.00;78.00;;;;;;5053217;28;20225;-92
2022/06/22 05:47:39;;;;;;;28.33;14.87;;;19.00;78.70;;;;;;5046006;28;20271;-92
2022/06/22 05:50:15;;;;;;;16.70;11.37;;;19.10;78.10;;;;;;5050661;28;20298;-96
2022/06/22 05:52:48;;;;;;;14.30;10.83;;;19.20;79.20;;;;;;5057716;28;20210;-94
2022/06/22 05:55:22;;;;;;;20.87;12.13;;;19.20;79.90;;;;;;5051031;28;20198;-92
2022/06/22 05:57:57;;;;;;;19.13;11.70;;;19.20;78.90;;;;;;5049299;28;20276;-94
2022/06/22 06:00:34;;;;;;;19.20;11.80;;;19.30;79.20;;;;;;5051276;28;20276;-94
2022/06/22 06:03:05;;;;;;;22.43;14.33;;;19.40;79.30;;;;;;5052174;28;20532;-93
2022/06/22 06:05:51;;;;;;;17.00;10.60;;;19.40;79.10;;;;;;5047670;28;20235;-95
2022/06/22 06:08:27;;;;;;;18.90;11.27;;;19.50;79.60;;;;;;5060540;28;20731;-90
2022/06/22 06:10:54;;;;;;;20.37;11.30;;;19.50;78.70;;;;;;5041779;28;20211;-93
2022/06/22 06:13:34;;;;;;;21.57;11.70;;;19.60;77.90;;;;;;5044393;28;20773;-91
2022/06/22 06:16:06;;;;;;;11.57;9.80;;;19.60;78.80;;;;;;5063890;28;20200;-92
2022/06/22 06:18:40;;;;;;;13.40;9.43;;;19.70;78.60;;;;;;5053864;28;20234;-94
2022/06/22 06:21:11;;;;;;;14.77;10.43;;;19.70;78.90;;;;;;5053689;28;20200;-92
2022/06/22 06:23:46;;;;;;;13.00;9.73;;;19.80;78.60;;;;;;5052334;28;20290;-92
2022/06/22 06:29:13;;;;;;;16.17;11.03;;;19.90;78.60;;;;;;5051203;28;20705;-94
2022/06/22 06:31:53;;;;;;;16.67;9.67;;;20.00;79.40;;;;;;5050921;28;20265;-89
2022/06/22 06:34:28;;;;;;;18.97;11.10;;;20.00;78.60;;;;;;5052024;28;20208;-94
2022/06/22 06:37:09;;;;;;;16.40;11.00;;;20.10;78.40;;;;;;5051961;28;20706;-95
2022/06/22 06:39:53;;;;;;;17.90;10.60;;;20.20;78.30;;;;;;5049236;28;20723;-94
2022/06/22 06:42:29;;;;;;;21.67;7.73;;;20.20;77.90;;;;;;5019007;28;20286;-94
2022/06/22 06:45:23;;;;;;;15.17;7.77;;;20.30;77.30;;;;;;5041705;28;20289;-96
2022/06/22 06:47:54;;;;;;;16.03;8.37;;;20.30;76.60;;;;;;5031516;28;20292;-91
2022/06/22 06:50:28;;;;;;;21.53;9.73;;;20.40;76.40;;;;;;5045614;28;20212;-94
2022/06/22 06:53:03;;;;;;;118.47;27.47;;;20.50;76.70;;;;;;5051516;28;20615;-93
2022/06/22 06:55:52;;;;;;;370.37;78.73;;;20.50;76.80;;;;;;5047988;28;20265;-92
2022/06/22 06:58:26;;;;;;;61.07;18.83;;;20.60;76.80;;;;;;5049622;28;20698;-93
2022/06/22 07:00:59;;;;;;;23.50;10.07;;;20.70;76.90;;;;;;5052556;28;20207;-93
2022/06/22 07:03:35;;;;;;;19.37;8.97;;;20.70;76.70;;;;;;5043790;28;20634;-94
2022/06/22 07:06:04;;;;;;;15.10;8.70;;;20.80;76.30;;;;;;5048977;28;20250;-92
2022/06/22 07:08:37;;;;;;;12.87;7.83;;;20.80;75.60;;;;;;5049117;28;20231;-93
2022/06/22 07:11:18;;;;;;;16.40;8.40;;;20.90;75.00;;;;;;5051978;28;20208;-94
2022/06/22 07:14:07;;;;;;;12.70;7.07;;;21.00;75.20;;;;;;5044976;28;20313;-91
2022/06/22 07:16:52;;;;;;;14.27;7.70;;;21.00;74.80;;;;;;5051652;28;20211;-93
2022/06/22 07:19:25;;;;;;;17.03;8.00;;;21.10;74.50;;;;;;5057463;28;20218;-94
2022/06/22 07:22:03;;;;;;;14.33;7.67;;;21.10;74.40;;;;;;5051148;28;20200;-90
2022/06/22 07:24:34;;;;;;;18.30;8.87;;;21.20;73.60;;;;;;5061823;28;20202;-92
2022/06/22 07:27:31;;;;;;;9.27;5.73;;;21.20;73.10;;;;;;5057508;28;20230;-95
2022/06/22 07:30:04;;;;;;;10.87;6.67;;;21.30;72.50;;;;;;5044061;28;20204;-95
2022/06/22 07:32:43;;;;;;;11.37;6.00;;;21.40;71.50;;;;;;5060229;28;20254;-94
2022/06/22 07:35:16;;;;;;;10.23;5.27;;;21.50;71.20;;;;;;5056734;28;20222;-94
2022/06/22 07:37:52;;;;;;;6.90;5.07;;;21.50;71.10;;;;;;5058481;28;20200;-95
2022/06/22 07:40:24;;;;;;;14.77;6.43;;;21.50;70.20;;;;;;5044642;28;20208;-94
2022/06/22 07:42:55;;;;;;;10.07;5.63;;;21.60;69.70;;;;;;5054986;28;20203;-93
2022/06/22 07:45:27;;;;;;;6.67;4.17;;;21.60;69.30;;;;;;5054495;28;20228;-95
2022/06/22 07:48:00;;;;;;;9.30;5.00;;;21.70;68.20;;;;;;5049588;28;20240;-95
2022/06/22 07:50:32;;;;;;;6.47;4.27;;;21.70;67.10;;;;;;5046975;28;20209;-93
2022/06/22 07:53:04;;;;;;;9.27;4.93;;;21.80;67.70;;;;;;5049734;28;20196;-94
2022/06/22 07:55:41;;;;;;;13.10;5.80;;;21.90;67.70;;;;;;5048595;28;20196;-94
2022/06/22 07:58:20;;;;;;;9.70;4.73;;;21.90;66.20;;;;;;5051089;28;20199;-95
2022/06/22 08:00:58;;;;;;;10.77;4.80;;;22.00;65.60;;;;;;5050577;28;20197;-94
2022/06/22 08:03:33;;;;;;;6.23;3.47;;;22.00;65.00;;;;;;5049367;28;20200;-93
2022/06/22 08:06:06;;;;;;;5.90;3.60;;;22.10;65.10;;;;;;5049350;28;20315;-96
2022/06/22 08:08:38;;;;;;;12.27;5.77;;;22.20;64.90;;;;;;5049959;28;20292;-93
2022/06/22 08:11:13;;;;;;;8.53;4.63;;;22.20;65.00;;;;;;5045234;28;20208;-95
2022/06/22 08:14:03;;;;;;;15.23;5.73;;;22.30;65.10;;;;;;5047903;28;21308;-90
2022/06/22 08:16:33;;;;;;;13.80;5.80;;;22.40;65.40;;;;;;5047949;28;20238;-94
2022/06/22 08:19:08;;;;;;;6.10;3.40;;;22.40;65.10;;;;;;5049901;28;20208;-95
2022/06/22 08:21:42;;;;;;;10.93;4.80;;;22.50;64.00;;;;;;5044628;28;20667;-96
2022/06/22 08:24:12;;;;;;;6.97;4.13;;;22.50;63.50;;;;;;5055019;28;20188;-93
2022/06/22 08:26:40;;;;;;;12.93;5.57;;;22.60;63.20;;;;;;5048398;28;20232;-92
2022/06/22 08:29:09;;;;;;;9.50;4.87;;;22.70;63.20;;;;;;5049252;28;20207;-93
2022/06/22 08:31:49;;;;;;;10.23;4.97;;;22.70;62.40;;;;;;5051249;28;20342;-94
2022/06/22 08:34:30;;;;;;;11.17;5.43;;;22.80;62.40;;;;;;5055732;28;20685;-95
2022/06/22 08:37:06;;;;;;;6.97;3.93;;;22.90;62.50;;;;;;5053116;28;20197;-95
2022/06/22 08:39:38;;;;;;;7.30;4.17;;;23.00;63.20;;;;;;5049945;28;20197;-95
2022/06/22 08:42:16;;;;;;;8.83;5.13;;;23.10;62.80;;;;;;5054372;28;20199;-93
2022/06/22 08:45:04;;;;;;;11.40;5.33;;;23.30;62.40;;;;;;5052802;28;20579;-95
2022/06/22 08:47:51;;;;;;;10.27;5.80;;;23.50;62.20;;;;;;5052776;28;20235;-91
2022/06/22 08:50:56;;;;;;;9.33;4.77;;;23.70;61.80;;;;;;5050557;28;20286;-93
2022/06/22 08:54:07;;;;;;;13.83;6.33;;;23.90;59.70;;;;;;5015382;28;20683;-94
2022/06/22 08:56:54;;;;;;;7.43;3.87;;;24.10;59.60;;;;;;4999674;28;20246;-92
2022/06/22 08:59:56;;;;;;;6.47;2.90;;;24.40;59.20;;;;;;5046040;28;20214;-95
2022/06/22 09:02:40;;;;;;;11.47;5.40;;;24.60;59.30;;;;;;5032103;28;20232;-95
2022/06/22 09:05:34;;;;;;;5.37;3.30;;;24.80;59.00;;;;;;5051006;28;20208;-94
2022/06/22 09:08:29;;;;;;;6.83;3.73;;;25.00;58.70;;;;;;5047335;28;20668;-94
2022/06/22 09:11:16;;;;;;;9.00;4.57;;;25.20;58.40;;;;;;5048977;28;20860;-93
2022/06/22 09:14:17;;;;;;;9.03;5.00;;;25.40;58.30;;;;;;5051497;28;20204;-96
2022/06/22 09:17:14;;;;;;;7.97;4.40;;;25.60;57.40;;;;;;5048669;28;20204;-94
2022/06/22 09:20:02;;;;;;;7.80;4.57;;;25.80;57.50;;;;;;5049821;28;20220;-95
2022/06/22 09:22:45;;;;;;;8.53;4.63;;;26.00;57.60;;;;;;5053229;28;20216;-93
2022/06/22 09:25:26;;;;;;;7.57;4.00;;;26.20;56.40;;;;;;5031079;28;20220;-94
2022/06/22 09:28:01;;;;;;;8.33;3.50;;;26.40;56.90;;;;;;5055278;28;20279;-95
2022/06/22 09:30:55;;;;;;;6.20;3.47;;;26.60;56.90;;;;;;5053150;28;20210;-94
2022/06/22 09:33:56;;;;;;;6.70;4.17;;;26.70;56.10;;;;;;5049136;28;20261;-93
2022/06/22 09:36:53;;;;;;;7.07;4.13;;;26.90;55.30;;;;;;5036180;28;20292;-93
2022/06/22 09:39:47;;;;;;;12.07;5.20;;;27.10;55.20;;;;;;5050963;28;20241;-92
2022/06/22 09:42:30;;;;;;;10.47;3.23;;;27.30;55.40;;;;;;5044467;28;20208;-94
2022/06/22 09:45:20;;;;;;;5.83;3.43;;;27.40;54.20;;;;;;5052323;28;20223;-96
2022/06/22 09:48:03;;;;;;;11.30;5.33;;;27.60;54.00;;;;;;5046995;28;20317;-95
2022/06/22 09:50:48;;;;;;;10.73;4.03;;;27.70;53.90;;;;;;5051751;28;20258;-93
2022/06/22 09:53:38;;;;;;;12.90;5.47;;;27.80;53.10;;;;;;5049524;28;20204;-94
2022/06/22 09:56:40;;;;;;;5.57;3.47;;;28.00;52.60;;;;;;5054234;28;20208;-95
2022/06/22 09:59:24;;;;;;;8.97;4.77;;;28.20;52.10;;;;;;5045683;28;20211;-92
2022/06/22 10:02:03;;;;;;;13.90;9.20;;;28.30;51.70;;;;;;5052119;28;20200;-96
2022/06/22 10:04:59;;;;;;;8.27;4.33;;;28.40;52.00;;;;;;5057800;28;20646;-93
2022/06/22 10:07:44;;;;;;;6.37;3.77;;;28.60;51.10;;;;;;5052771;28;20251;-93
2022/06/22 10:10:27;;;;;;;9.13;4.37;;;28.70;50.40;;;;;;5050844;28;20192;-91
2022/06/22 10:13:33;;;;;;;4.40;2.83;;;28.80;50.10;;;;;;5044216;28;20224;-92
2022/06/22 10:16:13;;;;;;;4.40;2.67;;;28.90;50.10;;;;;;5033628;28;20205;-94
2022/06/22 10:18:52;;;;;;;6.73;3.53;;;29.00;50.90;;;;;;5046538;28;20293;-93
2022/06/22 10:21:29;;;;;;;3.37;2.80;;;29.10;49.80;;;;;;5051387;28;20565;-93
2022/06/22 10:24:26;;;;;;;8.70;4.70;;;29.20;50.20;;;;;;5049740;28;20523;-94
2022/06/22 10:27:13;;;;;;;6.23;3.37;;;29.30;49.80;;;;;;5034036;28;20314;-95
2022/06/22 10:30:04;;;;;;;9.27;4.80;;;29.40;49.20;;;;;;5051159;28;20204;-94
2022/06/22 10:32:48;;;;;;;6.77;3.70;;;29.60;48.30;;;;;;5051325;28;20739;-95
2022/06/22 10:35:38;;;;;;;5.70;3.10;;;29.60;49.00;;;;;;5050985;28;20204;-96
2022/06/22 10:38:26;;;;;;;7.73;4.00;;;29.70;48.50;;;;;;5050323;28;20204;-90
2022/06/22 10:47:10;;;;;;;6.50;3.33;;;29.90;48.00;;;;;;5053106;28;20254;-94
2022/06/22 10:50:13;;;;;;;6.17;3.30;;;30.00;47.20;;;;;;5052605;28;20199;-94
2022/06/22 10:53:03;;;;;;;7.03;3.77;;;30.00;47.10;;;;;;5048436;28;20208;-92
2022/06/22 10:55:48;;;;;;;6.80;3.80;;;30.10;46.00;;;;;;5050309;28;20204;-93
2022/06/22 10:58:47;;;;;;;5.87;3.43;;;30.10;46.20;;;;;;5047803;28;20851;-92
2022/06/22 11:01:50;;;;;;;9.77;3.47;;;30.20;46.60;;;;;;5049884;28;20815;-92
2022/06/22 11:05:11;;;;;;;6.67;3.80;;;30.30;46.30;;;;;;5049769;28;20774;-91
2022/06/22 11:08:19;;;;;;;3.83;2.40;;;30.30;45.80;;;;;;4992189;28;20238;-92
2022/06/22 11:11:10;;;;;;;9.20;4.13;;;30.30;45.60;;;;;;5060200;28;20218;-92
2022/06/22 11:14:06;;;;;;;10.30;4.13;;;30.30;44.70;;;;;;5051060;28;20200;-92
2022/06/22 11:16:55;;;;;;;5.87;3.10;;;30.40;44.80;;;;;;5032350;28;20287;-93
2022/06/22 11:20:10;;;;;;;9.03;3.37;;;30.40;44.40;;;;;;5046036;28;20239;-91
2022/06/22 11:22:49;;;;;;;10.10;3.30;;;30.50;44.00;;;;;;5007039;28;20261;-93
2022/06/22 11:32:19;;;;;;;10.93;4.60;;;30.50;44.00;;;;;;5048326;28;20718;-93
2022/06/22 11:35:34;;;;;;;7.83;3.20;;;30.60;44.30;;;;;;5049045;28;20232;-92
2022/06/22 11:38:17;;;;;;;6.77;3.60;;;30.60;43.70;;;;;;4950165;28;20214;-92
2022/06/22 11:41:09;;;;;;;6.80;3.27;;;30.70;44.10;;;;;;5051175;28;20581;-91
2022/06/22 11:43:59;;;;;;;7.87;3.20;;;30.70;43.90;;;;;;5049839;28;20200;-93
2022/06/22 11:46:30;;;;;;;10.00;4.50;;;30.70;43.10;;;;;;5048916;28;20223;-93
2022/06/22 11:49:28;;;;;;;7.70;3.72;;;30.80;44.90;;;;;;5048460;28;20207;-93
2022/06/22 11:52:17;;;;;;;7.27;3.50;;;30.90;42.60;;;;;;5049012;28;20676;-91
2022/06/22 11:55:02;;;;;;;7.28;2.88;;;30.90;43.10;;;;;;5031350;28;20207;-92
2022/06/22 11:57:58;;;;;;;7.30;3.73;;;31.00;43.00;;;;;;5036005;28;20723;-92
2022/06/22 12:00:38;;;;;;;8.32;3.58;;;31.00;42.40;;;;;;5029264;28;20200;-92
2022/06/22 12:03:35;;;;;;;9.43;4.07;;;31.10;42.60;;;;;;5039005;28;20687;-95
2022/06/22 12:06:19;;;;;;;7.22;3.60;;;31.10;42.60;;;;;;5049935;28;20212;-95
2022/06/22 12:09:08;;;;;;;9.77;4.55;;;31.20;42.70;;;;;;5049343;28;20208;-93
2022/06/22 12:11:47;;;;;;;10.15;4.65;;;31.30;43.50;;;;;;5048866;28;20228;-94
2022/06/22 12:17:34;;;;;;;7.95;3.60;;;31.40;44.60;;;;;;5049210;28;20349;-94
2022/06/22 12:20:14;;;;;;;7.13;3.83;;;31.40;44.30;;;;;;5049149;28;20238;-92
2022/06/22 12:22:54;;;;;;;8.48;4.32;;;31.50;44.50;;;;;;5049973;28;20204;-94
2022/06/22 12:25:47;;;;;;;8.48;4.25;;;31.50;43.90;;;;;;5049218;28;20211;-94
2022/06/22 12:28:28;;;;;;;9.73;5.22;;;31.60;44.10;;;;;;5050476;28;20232;-92
2022/06/22 12:31:05;;;;;;;16.88;6.55;;;31.60;44.00;;;;;;5049852;28;20192;-94
2022/06/22 12:33:37;;;;;;;10.80;4.85;;;31.60;44.50;;;;;;5048451;28;20679;-93
2022/06/22 12:36:11;;;;;;;5.43;3.45;;;31.60;43.60;;;;;;5052054;28;20208;-96
2022/06/22 12:38:45;;;;;;;7.60;4.15;;;31.70;44.00;;;;;;5052959;28;20235;-93
2022/06/22 12:41:27;;;;;;;10.05;4.47;;;31.70;44.20;;;;;;5052901;28;20204;-94
2022/06/22 12:44:33;;;;;;;5.40;3.08;;;31.70;44.20;;;;;;5051543;28;20204;-93
2022/06/22 12:47:18;;;;;;;14.52;5.60;;;31.70;43.20;;;;;;5050616;28;20692;-95
2022/06/22 12:49:54;;;;;;;7.57;3.70;;;31.80;43.30;;;;;;5051683;28;20310;-93
2022/06/22 12:52:30;;;;;;;6.28;3.17;;;31.80;43.70;;;;;;5054474;28;20279;-96
2022/06/22 12:55:03;;;;;;;6.53;3.92;;;31.80;43.20;;;;;;5052996;28;20227;-94
2022/06/22 12:57:36;;;;;;;4.75;3.28;;;31.90;43.50;;;;;;5066340;28;20227;-93
2022/06/22 13:00:09;;;;;;;4.38;2.38;;;31.90;43.80;;;;;;5068346;28;20272;-96
2022/06/22 13:02:39;;;;;;;8.25;4.00;;;31.90;42.50;;;;;;5070712;28;20200;-94
2022/06/22 13:05:10;;;;;;;8.23;4.88;;;31.90;43.80;;;;;;5066003;28;20214;-92
2022/06/22 13:07:43;;;;;;;9.80;4.35;;;32.00;43.90;;;;;;5062094;28;20235;-94
2022/06/22 13:10:16;;;;;;;8.30;4.72;;;32.10;44.00;;;;;;5067607;28;20208;-94
2022/06/22 13:12:50;;;;;;;9.27;5.22;;;32.10;43.80;;;;;;5064061;28;20707;-94
2022/06/22 13:15:24;;;;;;;7.90;4.78;;;32.10;43.80;;;;;;5063649;28;20233;-93
2022/06/22 13:17:59;;;;;;;8.55;3.58;;;32.20;43.50;;;;;;5052934;28;20619;-95
2022/06/22 13:20:52;;;;;;;6.72;4.28;;;32.20;43.50;;;;;;5052376;28;20199;-94
2022/06/22 13:23:40;;;;;;;6.28;4.07;;;32.30;43.50;;;;;;5052189;28;20211;-93
2022/06/22 13:26:21;;;;;;;9.45;5.32;;;32.30;43.60;;;;;;5051653;28;20211;-95
2022/06/22 13:28:55;;;;;;;10.38;5.20;;;32.20;43.00;;;;;;5052335;28;20969;-94
2022/06/22 13:31:27;;;;;;;8.13;4.65;;;32.20;43.80;;;;;;5052892;28;20196;-96
2022/06/22 13:33:58;;;;;;;9.70;4.78;;;32.20;43.20;;;;;;5051303;28;20258;-94
2022/06/22 13:36:37;;;;;;;11.45;4.35;;;32.10;43.40;;;;;;5052665;28;20226;-93
2022/06/22 13:39:21;;;;;;;7.97;3.60;;;32.10;43.30;;;;;;5053195;28;20203;-94
2022/06/22 13:42:07;;;;;;;12.23;4.90;;;32.10;43.30;;;;;;5054832;22;20909;-95
2022/06/22 13:44:58;;;;;;;6.97;4.13;;;32.10;43.30;;;;;;5050922;28;20808;-94
2022/06/22 13:47:44;;;;;;;8.73;3.45;;;32.10;42.70;;;;;;5051123;28;20216;-94
2022/06/22 13:50:41;;;;;;;8.85;4.05;;;32.10;42.60;;;;;;5052486;28;20291;-92
2022/06/22 13:53:19;;;;;;;8.30;4.50;;;32.10;42.70;;;;;;5051667;28;20320;-94
2022/06/22 13:55:57;;;;;;;7.88;4.15;;;32.10;43.10;;;;;;5050682;28;20214;-94
2022/06/22 13:58:32;;;;;;;10.52;4.57;;;32.20;42.70;;;;;;5053329;28;20215;-93
2022/06/22 14:01:05;;;;;;;9.20;4.40;;;32.30;43.00;;;;;;5033807;28;20203;-92